Time;durP1;ratioP1;P1;durP2;ratioP2;P2;SDS_P1;SDS_P2;PMS_P1;PMS_P2;Temp;Humidity;BMP_temperature;BMP_pressure;BME280_temperature;BME280_humidity;BME280_pressure;Samples;Min_cycle;Max_cycle;Signal;HPM_P1;HPM_P2
2022/01/27 00:03:17;;;;;;;48.75;21.00;;;;;;;3.53;79.81;102603.88;10547355;28;20048;-80
2022/01/27 00:08:36;;;;;;;53.33;23.73;;;;;;;3.62;79.96;102604.59;10485417;28;20048;-79
2022/01/27 00:13:48;;;;;;;47.88;22.20;;;;;;;3.58;79.87;102597.50;10516954;28;20498;-79
2022/01/27 00:18:52;;;;;;;51.70;22.55;;;;;;;3.60;79.70;102604.50;10501186;28;20487;-78
2022/01/27 00:23:55;;;;;;;55.80;25.27;;;;;;;3.85;78.97;102592.84;10498377;28;20381;-80
2022/01/27 00:28:56;;;;;;;50.90;22.00;;;;;;;3.61;79.67;102568.03;10473426;28;20036;-80
2022/01/27 00:34:03;;;;;;;51.38;24.17;;;;;;;3.67;79.65;102570.22;10488092;28;20094;-80
2022/01/27 00:39:05;;;;;;;58.70;21.30;;;;;;;3.69;79.17;102561.00;10510443;28;20036;-79
2022/01/27 00:44:06;;;;;;;58.90;22.92;;;;;;;3.75;78.29;102556.44;10510697;28;20082;-81
2022/01/27 00:49:08;;;;;;;48.70;22.02;;;;;;;3.79;78.79;102553.34;10495540;28;20128;-80
2022/01/27 00:54:18;;;;;;;50.83;20.80;;;;;;;3.72;78.59;102557.84;10496551;28;20499;-80
2022/01/27 00:59:32;;;;;;;40.13;19.35;;;;;;;3.86;78.17;102549.63;10482319;28;20044;-80
2022/01/27 01:04:37;;;;;;;42.85;19.17;;;;;;;3.75;77.77;102558.97;10533370;28;20123;-81
2022/01/27 01:10:26;;;;;;;43.08;19.52;;;;;;;3.88;77.56;102565.06;10482433;28;20701;-80
2022/01/27 01:15:25;;;;;;;38.83;18.05;;;;;;;3.81;77.86;102556.91;10490785;28;20563;-79
2022/01/27 01:36:48;;;;;;;37.50;17.90;;;;;;;4.08;76.95;102520.72;10468222;28;20049;-79
2022/01/27 01:41:50;;;;;;;42.75;19.25;;;;;;;4.16;76.22;102536.63;10503610;28;20434;-79
2022/01/27 01:46:53;;;;;;;38.53;18.65;;;;;;;4.17;76.34;102530.75;10488944;28;20513;-79
2022/01/27 01:52:03;;;;;;;34.95;16.65;;;;;;;4.02;76.58;102500.72;10500596;28;20051;-79
2022/01/27 01:57:05;;;;;;;37.20;14.98;;;;;;;3.94;76.92;102487.38;10477856;28;20141;-79
2022/01/27 02:02:08;;;;;;;34.03;15.70;;;;;;;4.09;76.50;102480.03;10493182;28;20507;-80
2022/01/27 02:07:49;;;;;;;37.88;18.55;;;;;;;4.23;76.39;102486.22;10508661;28;20131;-81
2022/01/27 02:18:13;;;;;;;37.70;17.40;;;;;;;4.21;76.17;102481.72;10495136;28;20551;-78
2022/01/27 02:23:16;;;;;;;40.10;16.98;;;;;;;4.15;76.63;102486.38;10463434;28;20060;-80
2022/01/27 02:28:19;;;;;;;39.35;17.02;;;;;;;4.38;76.20;102494.13;10489112;28;20132;-80
2022/01/27 02:33:31;;;;;;;32.75;15.90;;;;;;;4.17;75.89;102466.97;10479563;28;20133;-82
2022/01/27 02:38:32;;;;;;;33.92;16.48;;;;;;;4.15;76.69;102460.84;10480311;28;20056;-81
2022/01/27 02:43:34;;;;;;;32.95;16.08;;;;;;;4.33;76.07;102457.19;10503941;28;20109;-79
2022/01/27 02:48:36;;;;;;;37.97;16.95;;;;;;;4.29;76.11;102450.94;10514567;28;20058;-78
2022/01/27 02:53:37;;;;;;;34.92;17.65;;;;;;;4.33;75.84;102421.47;10501658;28;20056;-79
2022/01/27 02:58:39;;;;;;;35.85;16.35;;;;;;;4.39;75.63;102419.38;10490661;28;20463;-80
2022/01/27 03:03:40;;;;;;;35.42;18.40;;;;;;;4.40;76.14;102433.91;10475606;28;20054;-78
2022/01/27 03:08:42;;;;;;;30.20;14.80;;;;;;;4.29;76.19;102429.63;10482253;28;20052;-80
2022/01/27 03:13:44;;;;;;;40.88;18.45;;;;;;;4.40;75.52;102418.59;10494248;28;20496;-79
2022/01/27 03:18:45;;;;;;;36.90;16.75;;;;;;;4.42;75.84;102403.38;10471673;28;20570;-78
2022/01/27 03:23:47;;;;;;;36.13;17.08;;;;;;;4.32;76.54;102403.50;10510894;28;20040;-80
2022/01/27 03:28:50;;;;;;;38.70;17.70;;;;;;;4.38;76.54;102399.72;10512894;28;20059;-79
2022/01/27 03:33:52;;;;;;;34.08;14.05;;;;;;;4.43;76.35;102377.97;10516251;28;20052;-80
2022/01/27 03:38:54;;;;;;;36.33;14.60;;;;;;;4.40;76.36;102370.09;10446197;28;20519;-80
2022/01/27 03:43:56;;;;;;;34.42;17.25;;;;;;;4.47;76.25;102352.69;10487684;28;20380;-80
2022/01/27 03:49:00;;;;;;;42.42;17.27;;;;;;;4.43;76.08;102357.56;10504953;28;20044;-80
2022/01/27 03:54:08;;;;;;;33.70;14.52;;;;;;;4.40;76.34;102331.84;10518180;28;20048;-80
2022/01/27 03:59:09;;;;;;;32.63;17.00;;;;;;;4.51;76.24;102347.94;10469550;28;20545;-81
2022/01/27 04:04:11;;;;;;;34.22;17.67;;;;;;;4.40;77.07;102357.34;10496467;28;20053;-80
2022/01/27 04:09:13;;;;;;;33.03;15.90;;;;;;;4.44;76.74;102333.81;10520025;28;20510;-79
2022/01/27 04:14:14;;;;;;;37.78;17.35;;;;;;;4.56;76.72;102344.03;10531036;28;20093;-87
2022/01/27 04:19:16;;;;;;;31.95;15.98;;;;;;;4.54;76.35;102337.06;10506732;28;20040;-86
2022/01/27 04:24:22;;;;;;;37.08;17.60;;;;;;;4.58;76.62;102341.59;10505721;28;20070;-87
2022/01/27 04:29:24;;;;;;;34.08;14.50;;;;;;;4.61;76.03;102323.97;10498777;28;20041;-87
2022/01/27 04:34:26;;;;;;;29.95;15.10;;;;;;;4.58;76.77;102336.50;10494201;28;20488;-82
2022/01/27 04:39:35;;;;;;;38.08;17.30;;;;;;;4.64;76.61;102326.75;10494081;28;20094;-83
2022/01/27 04:45:03;;;;;;;29.95;13.80;;;;;;;4.53;76.29;102302.09;10482312;28;20159;-84
2022/01/27 04:50:00;;;;;;;32.53;14.70;;;;;;;4.52;76.71;102275.69;10500339;28;20119;-84
2022/01/27 04:55:06;;;;;;;32.03;14.88;;;;;;;4.69;76.67;102268.38;10485499;28;20040;-81
2022/01/27 05:00:12;;;;;;;31.45;15.20;;;;;;;4.73;76.38;102255.91;10481277;28;20041;-83
2022/01/27 05:05:14;;;;;;;28.85;13.50;;;;;;;4.57;77.33;102238.63;10502966;28;20089;-83
2022/01/27 05:10:27;;;;;;;32.75;14.45;;;;;;;4.83;76.54;102280.47;10470126;28;20609;-81
2022/01/27 05:15:45;;;;;;;29.88;13.48;;;;;;;4.69;77.31;102238.63;10495312;28;20043;-86
2022/01/27 05:20:48;;;;;;;33.47;14.00;;;;;;;5.01;76.80;102232.34;10470152;28;20037;-83
2022/01/27 05:25:49;;;;;;;29.80;13.18;;;;;;;4.98;76.62;102234.69;10454472;28;20074;-82
2022/01/27 05:30:51;;;;;;;28.10;13.38;;;;;;;5.02;77.25;102223.91;10491763;28;20087;-82
2022/01/27 05:35:52;;;;;;;27.23;12.25;;;;;;;5.05;77.28;102218.13;10529520;28;20127;-82
2022/01/27 05:40:54;;;;;;;32.80;15.73;;;;;;;5.10;77.50;102208.22;10507042;28;20060;-81
2022/01/27 05:45:56;;;;;;;34.80;14.00;;;;;;;5.15;78.12;102209.44;10521549;28;20069;-82
2022/01/27 05:50:59;;;;;;;29.52;13.43;;;;;;;5.14;77.64;102207.66;10524295;28;20044;-80
2022/01/27 05:56:00;;;;;;;36.33;13.80;;;;;;;5.17;78.28;102192.53;10524104;28;20427;-81
2022/01/27 06:01:03;;;;;;;29.05;13.30;;;;;;;5.17;78.71;102184.88;10523374;28;20127;-81
2022/01/27 06:06:05;;;;;;;31.33;13.25;;;;;;;5.17;79.04;102195.09;10524441;28;20597;-83
2022/01/27 06:11:10;;;;;;;26.13;11.27;;;;;;;5.04;79.86;102183.13;10522083;28;20076;-83
2022/01/27 06:16:12;;;;;;;32.75;13.57;;;;;;;4.93;81.15;102188.38;10511850;28;20446;-81
2022/01/27 06:21:14;;;;;;;37.38;13.45;;;;;;;4.82;82.32;102183.31;10481777;28;20036;-80
2022/01/27 06:26:16;;;;;;;32.85;14.00;;;;;;;4.78;83.08;102173.66;10495300;28;20187;-81
2022/01/27 06:31:17;;;;;;;33.10;13.20;;;;;;;4.67;83.97;102163.56;10491824;28;20032;-81
2022/01/27 06:36:19;;;;;;;28.52;13.95;;;;;;;4.68;84.98;102160.25;10501097;28;20056;-81
2022/01/27 06:41:21;;;;;;;37.35;14.20;;;;;;;4.69;85.00;102159.47;10484835;28;20527;-81
2022/01/27 06:46:23;;;;;;;31.63;13.45;;;;;;;4.73;85.14;102148.69;10524586;28;20086;-82
2022/01/27 06:51:26;;;;;;;32.75;15.10;;;;;;;4.82;84.73;102151.00;10524118;28;20395;-83
2022/01/27 06:56:28;;;;;;;35.30;15.60;;;;;;;4.82;84.36;102147.56;10533561;28;20050;-81
2022/01/27 07:01:30;;;;;;;39.53;16.08;;;;;;;4.80;84.14;102144.91;10542237;28;20037;-81
2022/01/27 07:06:36;;;;;;;27.92;13.50;;;;;;;4.78;84.02;102150.69;10485104;28;20507;-80
2022/01/27 07:11:38;;;;;;;39.05;16.20;;;;;;;4.91;83.50;102143.97;10514557;28;20055;-80
2022/01/27 07:16:39;;;;;;;30.75;14.77;;;;;;;5.00;83.67;102159.06;10520143;28;20052;-82
2022/01/27 07:21:44;;;;;;;36.85;15.00;;;;;;;4.98;83.30;102157.19;10480215;28;20047;-81
2022/01/27 07:26:48;;;;;;;33.22;15.82;;;;;;;4.91;84.74;102161.84;10510539;28;20071;-84
2022/01/27 07:31:49;;;;;;;39.20;16.80;;;;;;;5.00;85.26;102176.94;10525464;28;20456;-83
2022/01/27 07:36:56;;;;;;;40.65;16.42;;;;;;;4.94;85.67;102173.97;10525876;28;20040;-83
2022/01/27 07:42:00;;;;;;;35.90;16.10;;;;;;;4.91;86.52;102174.59;10524846;28;20040;-82
2022/01/27 07:47:02;;;;;;;38.60;16.58;;;;;;;4.91;86.64;102168.63;10524176;28;20143;-86
2022/01/27 07:52:03;;;;;;;32.83;15.82;;;;;;;4.86;87.67;102159.78;10500742;28;20040;-83
2022/01/27 07:57:05;;;;;;;36.28;17.38;;;;;;;4.90;87.84;102166.84;10494488;28;20072;-85
2022/01/27 08:02:08;;;;;;;38.35;17.35;;;;;;;4.88;87.57;102158.19;10531269;28;20479;-83
2022/01/27 08:07:10;;;;;;;38.90;18.10;;;;;;;4.93;88.42;102154.31;10517073;28;20051;-83
2022/01/27 08:12:12;;;;;;;37.30;16.48;;;;;;;4.96;88.37;102149.38;10500131;28;20533;-85
2022/01/27 08:17:16;;;;;;;37.13;17.65;;;;;;;5.02;87.83;102149.84;10500667;28;20056;-83
2022/01/27 08:22:18;;;;;;;33.47;15.60;;;;;;;4.93;87.99;102144.09;10506219;28;20048;-84
2022/01/27 08:27:26;;;;;;;36.42;16.60;;;;;;;5.02;88.29;102149.84;10515961;28;20057;-84
2022/01/27 08:37:49;;;;;;;36.35;14.68;;;;;;;5.03;87.78;102149.03;10501549;28;20496;-85
2022/01/27 08:42:51;;;;;;;36.35;15.68;;;;;;;5.10;88.40;102144.38;10520967;28;20484;-83
2022/01/27 08:47:55;;;;;;;33.22;15.85;;;;;;;5.21;87.94;102143.41;10500748;28;20138;-83
2022/01/27 08:52:56;;;;;;;33.08;16.38;;;;;;;5.33;88.28;102134.00;10503678;28;20139;-85
2022/01/27 08:57:58;;;;;;;34.03;16.30;;;;;;;5.28;88.38;102130.25;10504701;28;20372;-84
2022/01/27 09:03:00;;;;;;;30.73;13.52;;;;;;;5.27;88.32;102133.59;10481479;28;20044;-82
2022/01/27 09:08:02;;;;;;;38.45;15.80;;;;;;;5.36;88.26;102131.66;10504905;28;20166;-83
2022/01/27 09:13:04;;;;;;;34.97;15.90;;;;;;;5.37;88.65;102130.88;10508626;28;20089;-85
2022/01/27 09:18:05;;;;;;;33.20;13.05;;;;;;;5.37;88.80;102130.88;10514578;28;20534;-84
2022/01/27 09:23:13;;;;;;;29.52;13.85;;;;;;;5.49;88.78;102130.81;10489293;28;20051;-83
2022/01/27 09:28:15;;;;;;;28.38;13.38;;;;;;;5.58;88.91;102130.53;10502294;28;20048;-83
2022/01/27 09:33:17;;;;;;;28.77;12.68;;;;;;;5.63;88.80;102134.28;10500742;28;20064;-83
2022/01/27 09:38:19;;;;;;;25.38;12.18;;;;;;;5.68;88.82;102132.91;10518797;28;20117;-83
2022/01/27 09:43:20;;;;;;;23.00;11.50;;;;;;;5.84;88.50;102133.94;10505366;28;20051;-83
2022/01/27 09:48:26;;;;;;;26.90;11.73;;;;;;;5.89;89.03;102142.78;10463883;28;20066;-82
2022/01/27 09:53:29;;;;;;;22.00;11.07;;;;;;;5.86;88.90;102132.34;10499098;28;20115;-84
2022/01/27 09:58:31;;;;;;;22.65;11.07;;;;;;;5.96;89.38;102129.59;10489357;28;20040;-84
2022/01/27 10:03:33;;;;;;;22.52;10.65;;;;;;;5.87;89.08;102129.91;10493203;28;20093;-82
2022/01/27 10:08:40;;;;;;;21.48;10.13;;;;;;;5.93;89.23;102133.63;10492150;28;20061;-85
2022/01/27 10:13:45;;;;;;;19.70;10.00;;;;;;;6.07;89.36;102134.56;10481584;28;20081;-84
2022/01/27 10:18:47;;;;;;;24.58;11.45;;;;;;;6.17;89.21;102142.91;10486763;28;20041;-83
2022/01/27 10:23:52;;;;;;;22.45;9.95;;;;;;;6.24;89.25;102139.06;10487342;28;20456;-84
2022/01/27 10:29:06;;;;;;;20.77;10.55;;;;;;;6.31;89.47;102130.97;10498940;28;20040;-86
2022/01/27 10:34:10;;;;;;;19.27;9.50;;;;;;;6.39;89.26;102140.81;10490455;28;20044;-84
2022/01/27 10:39:15;;;;;;;20.23;9.48;;;;;;;6.33;89.37;102146.44;10475679;28;20052;-83
2022/01/27 10:44:18;;;;;;;14.13;7.45;;;;;;;6.24;89.72;102139.06;10499170;28;20094;-84
2022/01/27 10:49:28;;;;;;;17.42;9.45;;;;;;;6.24;90.32;102131.38;10511229;28;20131;-83
2022/01/27 10:54:37;;;;;;;19.27;9.00;;;;;;;6.40;90.21;102143.50;10481294;28;20071;-83
2022/01/27 10:59:41;;;;;;;16.95;9.25;;;;;;;6.31;89.52;102132.66;10510738;28;20040;-83
2022/01/27 11:04:43;;;;;;;14.00;7.57;;;;;;;6.52;89.60;102133.09;10480875;28;20139;-84
2022/01/27 11:09:45;;;;;;;14.85;7.40;;;;;;;6.54;89.40;102135.78;10476444;28;20514;-83
2022/01/27 11:14:49;;;;;;;15.57;8.10;;;;;;;6.75;89.69;102125.97;10483639;28;20040;-84
2022/01/27 11:25:49;;;;;;;14.90;7.68;;;;;;;6.89;88.99;102119.13;10492684;28;20052;-84
2022/01/27 11:30:59;;;;;;;13.35;7.75;;;;;;;6.83;89.47;102107.72;10533721;28;20075;-84
2022/01/27 11:36:06;;;;;;;17.85;8.23;;;;;;;6.96;89.35;102111.00;10507563;28;20059;-84
2022/01/27 11:41:37;;;;;;;14.65;8.50;;;;;;;7.09;89.33;102102.38;10521379;28;20036;-84
2022/01/27 11:46:39;;;;;;;13.23;8.18;;;;;;;7.06;89.19;102086.81;10503741;28;20571;-83
2022/01/27 11:51:40;;;;;;;19.17;9.85;;;;;;;7.21;89.37;102087.72;10513930;28;20143;-86
2022/01/27 11:56:42;;;;;;;16.63;8.80;;;;;;;7.20;89.22;102085.94;10520853;28;20122;-85
2022/01/27 12:01:56;;;;;;;16.77;9.55;;;;;;;7.25;89.21;102094.81;10504689;28;20126;-84
2022/01/27 12:06:58;;;;;;;18.88;10.05;;;;;;;7.33;89.18;102097.81;10494845;28;20126;-83
2022/01/27 12:12:03;;;;;;;17.83;9.35;;;;;;;7.29;89.09;102096.75;10490184;28;20068;-84
2022/01/27 12:17:16;;;;;;;21.98;10.48;;;;;;;7.39;89.22;102089.59;10487605;28;20046;-85
2022/01/27 12:22:24;;;;;;;20.63;10.93;;;;;;;7.44;88.74;102080.50;10499029;28;20048;-83
2022/01/27 12:27:28;;;;;;;18.80;11.30;;;;;;;7.55;88.98;102079.44;10447674;28;20136;-84
2022/01/27 12:33:17;;;;;;;24.55;11.15;;;;;;;7.39;89.09;102072.53;10497009;28;20041;-84
2022/01/27 12:38:19;;;;;;;25.02;11.98;;;;;;;7.47;89.16;102066.16;10486175;28;20127;-84
2022/01/27 12:43:21;;;;;;;24.85;12.13;;;;;;;7.57;89.05;102062.44;10480210;28;20036;-83
2022/01/27 12:48:26;;;;;;;20.85;12.32;;;;;;;7.53;89.50;102055.38;10496422;28;20121;-84
2022/01/27 12:53:30;;;;;;;26.95;12.90;;;;;;;7.58;89.21;102053.94;10485692;28;20047;-83
2022/01/27 12:58:32;;;;;;;25.98;12.55;;;;;;;7.56;89.15;102046.97;10486520;28;20048;-83
2022/01/27 13:03:36;;;;;;;26.30;12.23;;;;;;;7.60;89.60;102043.75;10509642;28;20051;-84
2022/01/27 13:08:42;;;;;;;27.65;13.75;;;;;;;7.61;89.41;102038.75;10499897;28;20465;-83
2022/01/27 13:13:49;;;;;;;24.40;12.90;;;;;;;7.72;89.57;102041.00;10502009;28;20036;-83
2022/01/27 13:19:03;;;;;;;22.48;12.45;;;;;;;7.71;89.39;102039.25;10498176;28;20047;-83
2022/01/27 13:24:14;;;;;;;30.00;12.60;;;;;;;7.85;88.97;102037.44;10495507;28;20124;-83
2022/01/27 13:29:19;;;;;;;29.90;12.27;;;;;;;7.96;88.67;102044.06;10473142;28;20048;-84
2022/01/27 13:34:23;;;;;;;29.13;12.80;;;;;;;8.07;89.19;102055.78;10486106;28;20147;-83
2022/01/27 13:39:46;;;;;;;25.48;13.00;;;;;;;8.31;88.39;102064.72;10517268;28;20127;-83
2022/01/27 13:44:57;;;;;;;26.05;11.32;;;;;;;8.45;87.49;102043.25;10492058;28;20044;-84
2022/01/27 13:50:07;;;;;;;27.88;10.02;;;;;;;8.38;87.10;102036.91;10506658;28;20044;-83
2022/01/27 13:55:20;;;;;;;26.48;9.93;;;;;;;8.36;86.12;102050.47;10529150;28;20051;-83
2022/01/27 14:00:36;;;;;;;21.95;9.75;;;;;;;8.36;86.61;102046.22;10510501;28;20050;-82
2022/01/27 14:05:38;;;;;;;19.45;9.10;;;;;;;8.40;86.63;102057.53;10496714;28;20062;-83
2022/01/27 14:10:44;;;;;;;22.23;8.30;;;;;;;8.45;86.10;102053.50;10493253;28;20071;-82
2022/01/27 14:15:52;;;;;;;26.00;7.97;;;;;;;8.51;86.52;102061.59;10506234;28;20028;-83
2022/01/27 14:21:03;;;;;;;19.33;7.03;;;;;;;8.61;86.15;102069.78;10471502;28;20127;-83
2022/01/27 14:39:33;;;;;;;16.60;5.10;;;;;;;8.81;83.13;102075.97;10482583;28;20491;-83
2022/01/27 14:44:35;;;;;;;21.05;5.25;;;;;;;8.74;81.65;102082.47;10474576;28;20037;-85
2022/01/27 14:49:42;;;;;;;12.63;3.50;;;;;;;8.72;81.14;102099.50;10467569;28;20044;-82
2022/01/27 14:54:43;;;;;;;9.95;3.22;;;;;;;8.72;80.19;102095.22;10480281;28;20053;-83
2022/01/27 15:00:07;;;;;;;9.50;3.10;;;;;;;8.68;79.75;102102.69;10511698;28;20059;-84
2022/01/27 15:05:13;;;;;;;13.32;3.00;;;;;;;8.68;79.48;102093.31;10476622;28;20072;-84
2022/01/27 15:10:20;;;;;;;12.82;3.17;;;;;;;8.57;79.34;102100.44;10515234;28;20052;-83
2022/01/27 15:20:43;;;;;;;12.05;2.30;;;;;;;8.53;78.90;102107.91;10461648;28;20477;-85
2022/01/27 15:25:47;;;;;;;9.82;2.00;;;;;;;8.48;78.81;102115.38;10471927;28;20052;-82
2022/01/27 15:30:51;;;;;;;13.45;2.30;;;;;;;8.52;79.05;102132.72;10487293;28;20118;-85
2022/01/27 15:35:52;;;;;;;12.80;2.58;;;;;;;8.06;82.71;102125.03;10495141;28;20506;-86
2022/01/27 15:40:54;;;;;;;15.18;2.60;;;;;;;8.17;82.52;102125.63;10472090;28;20122;-83
2022/01/27 15:45:56;;;;;;;14.35;3.17;;;;;;;8.21;83.14;102140.38;10502135;28;20142;-86
2022/01/27 15:50:58;;;;;;;11.73;3.10;;;;;;;8.10;83.07;102157.75;10481143;28;20037;-82
2022/01/27 15:56:00;;;;;;;9.43;3.15;;;;;;;8.14;82.70;102148.53;10498977;28;20510;-85
2022/01/27 16:01:06;;;;;;;10.90;2.88;;;;;;;8.14;81.46;102149.44;10477025;28;20049;-83
2022/01/27 16:06:22;;;;;;;12.00;2.72;;;;;;;8.10;80.45;102168.00;10473131;28;20460;-83
2022/01/27 16:11:42;;;;;;;9.65;2.50;;;;;;;8.11;79.53;102174.91;10483730;28;20400;-86
2022/01/27 16:16:45;;;;;;;10.70;2.50;;;;;;;7.87;80.16;102177.84;10469590;28;20052;-86
2022/01/27 16:22:17;;;;;;;15.00;2.42;;;;;;;7.92;79.86;102179.03;10488407;28;20410;-84
2022/01/27 16:27:20;;;;;;;11.95;1.88;;;;;;;7.85;79.97;102184.59;10501776;28;20052;-85
2022/01/27 16:32:30;;;;;;;16.00;2.08;;;;;;;7.90;79.23;102196.00;10478406;28;20098;-86
2022/01/27 16:37:32;;;;;;;11.00;1.90;;;;;;;7.93;79.99;102185.91;10474552;28;20049;-85
2022/01/27 16:42:38;;;;;;;7.68;1.80;;;;;;;7.84;80.09;102179.38;10507896;28;20071;-84
2022/01/27 16:47:39;;;;;;;7.95;2.30;;;;;;;7.79;80.27;102197.06;10496933;28;20078;-84
2022/01/27 16:52:43;;;;;;;14.52;2.13;;;;;;;7.70;82.41;102207.69;10462825;28;20042;-86
2022/01/27 16:57:47;;;;;;;15.80;2.35;;;;;;;7.59;82.67;102199.34;10472168;28;20055;-83
2022/01/27 17:02:48;;;;;;;10.00;1.95;;;;;;;7.55;83.36;102217.03;10462033;28;20037;-85
2022/01/27 17:07:50;;;;;;;9.48;2.42;;;;;;;7.55;82.83;102223.06;10483543;28;20056;-86
2022/01/27 17:12:52;;;;;;;15.80;1.95;;;;;;;7.43;83.38;102232.56;10467449;28;20057;-84
2022/01/27 17:17:56;;;;;;;13.07;2.47;;;;;;;7.48;82.72;102249.13;10469315;28;20055;-86
2022/01/27 17:22:59;;;;;;;9.50;1.90;;;;;;;7.53;83.08;102250.28;10484045;28;20124;-84
2022/01/27 17:28:01;;;;;;;14.00;1.90;;;;;;;7.45;81.65;102259.19;10467829;28;20419;-85
2022/01/27 17:33:05;;;;;;;9.57;1.80;;;;;;;7.47;82.11;102275.56;10473547;28;20045;-86
2022/01/27 17:38:16;;;;;;;15.88;1.90;;;;;;;7.53;80.62;102286.19;10485717;28;20052;-82
2022/01/27 17:43:26;;;;;;;15.00;1.75;;;;;;;7.44;80.55;102283.06;10498089;28;20063;-84
2022/01/27 17:48:28;;;;;;;14.40;2.20;;;;;;;7.50;78.79;102295.38;10522067;28;20040;-85
2022/01/27 17:53:30;;;;;;;12.02;1.63;;;;;;;7.52;79.01;102297.25;10469785;28;20475;-84
2022/01/27 17:58:36;;;;;;;10.07;1.75;;;;;;;7.51;78.67;102303.16;10468967;28;20052;-85
2022/01/27 18:03:38;;;;;;;12.00;1.42;;;;;;;7.41;79.72;102300.84;10468810;28;20045;-85
2022/01/27 18:08:42;;;;;;;12.38;1.80;;;;;;;7.24;80.53;102328.88;10499724;28;20146;-83
2022/01/27 18:13:46;;;;;;;18.83;1.92;;;;;;;7.13;80.19;102330.78;10468020;28;20049;-85
2022/01/27 18:18:48;;;;;;;13.93;1.80;;;;;;;7.19;79.99;102335.38;10476795;28;20083;-86
2022/01/27 18:23:50;;;;;;;7.88;1.42;;;;;;;7.23;79.69;102341.56;10481439;28;20479;-84
2022/01/27 18:28:54;;;;;;;12.18;1.85;;;;;;;7.20;78.44;102344.84;10458340;28;20045;-83
2022/01/27 18:34:00;;;;;;;12.20;1.73;;;;;;;7.14;78.21;102341.91;10490681;28;20518;-84
2022/01/27 18:39:03;;;;;;;17.15;1.77;;;;;;;7.04;77.81;102362.59;10472291;28;20488;-85
2022/01/27 18:44:14;;;;;;;13.70;1.33;;;;;;;7.02;77.74;102361.63;10464448;28;20119;-85
2022/01/27 18:49:19;;;;;;;13.57;2.00;;;;;;;6.83;78.25;102365.56;10466731;28;20139;-84
2022/01/27 18:54:21;;;;;;;20.52;2.17;;;;;;;6.74;78.21;102380.34;10492203;28;20106;-84
2022/01/27 18:59:23;;;;;;;17.90;2.10;;;;;;;6.74;78.87;102388.03;10497245;28;20059;-83
2022/01/27 19:04:24;;;;;;;11.27;1.77;;;;;;;6.79;78.84;102384.09;10477730;28;20102;-85
2022/01/27 19:09:27;;;;;;;18.13;2.08;;;;;;;6.82;78.39;102399.63;10488264;28;20052;-82
2022/01/27 19:14:28;;;;;;;14.82;2.15;;;;;;;6.89;77.88;102404.38;10469438;28;20073;-82
2022/01/27 19:19:30;;;;;;;13.07;2.45;;;;;;;6.70;78.37;102398.84;10489296;28;20127;-85
2022/01/27 19:24:32;;;;;;;13.48;1.50;;;;;;;6.79;78.58;102392.66;10486408;28;20045;-83
2022/01/27 19:29:34;;;;;;;15.98;2.13;;;;;;;6.73;78.31;102409.31;10441677;28;20041;-86
2022/01/27 19:34:36;;;;;;;11.18;1.83;;;;;;;6.69;77.90;102409.88;10445104;28;20068;-83
2022/01/27 19:39:44;;;;;;;16.50;1.70;;;;;;;6.72;77.83;102413.53;10510025;28;20041;-85
2022/01/27 19:44:45;;;;;;;15.13;1.50;;;;;;;6.74;77.78;102421.34;10503594;28;20067;-82
2022/01/27 19:50:06;;;;;;;15.32;1.70;;;;;;;6.71;77.06;102441.59;10458676;28;20110;-83
2022/01/27 19:55:07;;;;;;;11.10;1.77;;;;;;;6.65;75.68;102458.34;10479128;28;20498;-84
2022/01/27 20:00:12;;;;;;;11.45;1.42;;;;;;;6.53;75.38;102465.19;10488749;28;20526;-84
2022/01/27 20:05:16;;;;;;;12.93;1.83;;;;;;;6.45;73.62;102466.34;10468601;28;20036;-84
2022/01/27 20:10:19;;;;;;;9.82;1.58;;;;;;;6.23;74.17;102490.47;10492445;28;20076;-85
2022/01/27 20:15:20;;;;;;;15.25;1.60;;;;;;;6.27;73.37;102489.91;10506467;28;20040;-84
2022/01/27 20:20:22;;;;;;;10.90;1.75;;;;;;;6.05;74.20;102505.44;10500861;28;20045;-83
2022/01/27 20:25:24;;;;;;;14.07;2.00;;;;;;;6.01;73.40;102506.00;10479731;28;20045;-83
2022/01/27 20:30:30;;;;;;;9.48;1.33;;;;;;;6.06;73.45;102514.03;10462927;28;20139;-85
2022/01/27 20:35:31;;;;;;;10.68;1.40;;;;;;;5.98;73.61;102516.91;10514968;28;20040;-83
2022/01/27 20:40:43;;;;;;;12.60;1.30;;;;;;;5.78;73.91;102522.22;10500652;28;20045;-84
2022/01/27 20:45:52;;;;;;;13.98;1.92;;;;;;;5.87;74.60;102533.13;10495280;28;20064;-84
2022/01/27 20:50:54;;;;;;;9.88;1.20;;;;;;;5.78;75.30;102537.59;10466440;28;20052;-85
2022/01/27 20:55:58;;;;;;;10.60;1.23;;;;;;;5.69;74.27;102548.97;10477447;28;20123;-85
2022/01/27 21:01:00;;;;;;;8.45;1.52;;;;;;;5.75;74.79;102547.59;10460492;28;20052;-83
2022/01/27 21:06:01;;;;;;;15.80;1.52;;;;;;;5.68;75.58;102561.59;10481541;28;20047;-85
2022/01/27 21:11:08;;;;;;;9.35;1.30;;;;;;;5.64;75.68;102560.50;10466303;28;20087;-83
2022/01/27 21:16:10;;;;;;;9.10;1.63;;;;;;;5.52;75.96;102572.41;10471812;28;20132;-84
2022/01/27 21:21:15;;;;;;;16.25;2.90;;;;;;;5.56;75.35;102569.28;10493851;28;20399;-84
2022/01/27 21:26:17;;;;;;;10.00;1.60;;;;;;;5.50;75.69;102576.50;10541501;28;20048;-85
2022/01/27 21:31:26;;;;;;;18.45;1.65;;;;;;;5.50;76.09;102571.38;10506608;28;20079;-84
2022/01/27 21:36:27;;;;;;;15.30;1.63;;;;;;;5.60;75.07;102578.97;10481863;28;20127;-83
2022/01/27 21:41:29;;;;;;;15.85;1.60;;;;;;;5.47;75.77;102578.84;10481331;28;20044;-84
2022/01/27 21:46:31;;;;;;;14.25;1.80;;;;;;;5.50;75.52;102592.75;10515077;28;20093;-84
2022/01/27 21:51:48;;;;;;;10.05;1.90;;;;;;;5.34;76.27;102588.13;10483639;28;20098;-85
2022/01/27 21:56:50;;;;;;;10.00;1.55;;;;;;;5.30;76.08;102603.13;10499587;28;20075;-84
2022/01/27 22:01:57;;;;;;;11.23;1.38;;;;;;;5.27;76.57;102603.78;10497510;28;20040;-84
2022/01/27 22:07:22;;;;;;;11.75;1.38;;;;;;;5.35;76.27;102607.81;10480734;28;20040;-84
2022/01/27 22:12:26;;;;;;;20.92;1.60;;;;;;;5.38;76.38;102618.28;10463538;28;20500;-83
2022/01/27 22:17:29;;;;;;;8.82;1.30;;;;;;;5.35;76.49;102619.72;10471617;28;20120;-85
2022/01/27 22:22:41;;;;;;;15.35;1.92;;;;;;;5.24;76.61;102632.56;10478216;28;20055;-84
2022/01/27 22:27:44;;;;;;;10.68;1.23;;;;;;;5.12;76.91;102623.09;10470548;28;20123;-84
2022/01/27 22:32:45;;;;;;;17.13;1.63;;;;;;;5.06;78.00;102634.63;10462834;28;20036;-84
2022/01/27 22:37:47;;;;;;;11.30;1.55;;;;;;;5.12;78.07;102643.53;10480532;28;20094;-82
2022/01/27 22:42:49;;;;;;;9.43;1.73;;;;;;;5.00;77.93;102643.47;10478038;28;20039;-84
2022/01/27 22:47:50;;;;;;;9.98;1.58;;;;;;;5.15;77.54;102649.75;10492729;28;20101;-84
2022/01/27 22:52:52;;;;;;;13.10;1.73;;;;;;;5.15;77.31;102669.31;10495547;28;20045;-84
2022/01/27 22:57:54;;;;;;;8.65;1.10;;;;;;;5.21;77.25;102659.56;10499259;28;20395;-84
2022/01/27 23:02:56;;;;;;;15.10;1.92;;;;;;;5.23;76.59;102670.78;10489943;28;20131;-84
2022/01/27 23:07:58;;;;;;;13.50;1.70;;;;;;;5.19;76.94;102671.31;10484851;28;20097;-84
2022/01/27 23:13:13;;;;;;;8.93;1.30;;;;;;;5.09;77.13;102679.94;10495831;28;20041;-85
2022/01/27 23:18:40;;;;;;;9.10;1.38;;;;;;;5.14;77.47;102678.63;10476974;28;20456;-83
2022/01/27 23:23:42;;;;;;;14.23;1.63;;;;;;;5.09;77.43;102685.06;10474978;28;20045;-85
2022/01/27 23:28:50;;;;;;;11.95;1.17;;;;;;;4.97;77.52;102674.78;10484669;28;20424;-85
2022/01/27 23:33:54;;;;;;;13.63;1.98;;;;;;;4.95;78.31;102676.34;10530754;28;20452;-85
2022/01/27 23:49:22;;;;;;;23.95;2.55;;;;;;;5.05;77.76;102696.72;10515778;28;20047;-85
2022/01/27 23:54:34;;;;;;;21.63;3.38;;;;;;;5.02;77.41;102714.38;10516203;28;20052;-85
2022/01/27 23:59:55;;;;;;;15.13;1.75;;;;;;;5.08;77.74;102722.50;10476323;28;20514;-86
